Time;durP1;ratioP1;P1;durP2;ratioP2;P2;SDS_P1;SDS_P2;PMS_P1;PMS_P2;Temp;Humidity;BMP_temperature;BMP_pressure;BME280_temperature;BME280_humidity;BME280_pressure;Samples;Min_cycle;Max_cycle;Signal;HPM_P1;HPM_P2
2023/05/11 00:00:37;;;;;;;13.00;10.83;;;17.30;99.90;;;;;;5077141;28;20462;-68
2023/05/11 00:03:04;;;;;;;11.97;10.60;;;17.30;99.90;;;;;;5076443;28;20886;-68
2023/05/11 00:05:31;;;;;;;12.70;11.40;;;17.20;99.90;;;;;;5076858;28;20486;-68
2023/05/11 00:07:58;;;;;;;12.77;11.50;;;17.20;99.90;;;;;;5076274;28;20484;-69
2023/05/11 00:10:25;;;;;;;12.30;10.97;;;17.20;99.90;;;;;;5076279;28;20450;-69
2023/05/11 00:12:52;;;;;;;12.23;11.03;;;17.20;99.90;;;;;;5077132;28;20454;-69
2023/05/11 00:15:20;;;;;;;12.07;10.47;;;17.10;99.90;;;;;;5076820;28;20544;-69
2023/05/11 00:17:47;;;;;;;12.80;10.43;;;17.20;99.90;;;;;;5076443;28;21005;-69
2023/05/11 00:20:14;;;;;;;12.63;11.23;;;17.10;99.90;;;;;;5076521;28;20488;-69
2023/05/11 00:22:40;;;;;;;14.60;11.70;;;17.10;99.90;;;;;;5076339;28;20454;-68
2023/05/11 00:25:08;;;;;;;12.63;10.57;;;17.10;99.90;;;;;;5078310;28;20887;-67
2023/05/11 00:27:35;;;;;;;11.53;10.13;;;17.00;99.90;;;;;;5078518;28;20489;-67
2023/05/11 00:30:02;;;;;;;12.00;10.73;;;17.00;99.90;;;;;;5078062;28;20568;-68
2023/05/11 00:32:30;;;;;;;11.90;10.73;;;17.00;99.90;;;;;;5078386;28;20458;-68
2023/05/11 00:34:57;;;;;;;13.33;10.53;;;17.00;99.90;;;;;;5078317;28;20511;-68
2023/05/11 00:37:23;;;;;;;12.47;10.80;;;17.00;99.90;;;;;;5078150;28;20464;-68
2023/05/11 00:39:50;;;;;;;12.10;10.90;;;17.00;99.90;;;;;;5078052;28;20496;-68
2023/05/11 00:42:17;;;;;;;13.67;11.83;;;17.00;99.90;;;;;;5078137;28;21014;-67
2023/05/11 00:44:44;;;;;;;11.83;10.57;;;16.90;99.90;;;;;;5077881;28;20454;-68
2023/05/11 00:47:11;;;;;;;11.60;10.40;;;16.90;99.90;;;;;;5078329;28;20458;-68
2023/05/11 00:49:39;;;;;;;12.23;10.80;;;16.90;99.90;;;;;;5078264;28;20564;-68
2023/05/11 00:52:06;;;;;;;12.30;11.00;;;16.80;99.90;;;;;;5077894;28;20919;-68
2023/05/11 00:54:33;;;;;;;12.20;10.70;;;16.80;99.90;;;;;;5078137;28;20488;-68
2023/05/11 00:57:00;;;;;;;17.93;15.93;;;16.80;99.90;;;;;;5077865;28;20446;-68
2023/05/11 00:59:27;;;;;;;13.07;10.57;;;16.70;99.90;;;;;;5078283;28;20449;-68
2023/05/11 01:01:54;;;;;;;13.40;10.60;;;16.70;99.90;;;;;;5077681;28;20541;-68
2023/05/11 01:04:21;;;;;;;11.23;10.07;;;16.70;99.90;;;;;;5077936;28;20472;-67
2023/05/11 01:06:55;;;;;;;13.20;11.90;;;16.60;99.90;;;;;;5077839;28;20463;-68
2023/05/11 01:09:43;;;;;;;13.10;11.20;;;16.60;99.90;;;;;;5077829;28;20458;-68
2023/05/11 01:12:15;;;;;;;12.57;11.30;;;16.60;99.90;;;;;;5077279;28;20438;-68
2023/05/11 01:14:47;;;;;;;12.63;11.33;;;16.50;99.90;;;;;;5077774;28;20452;-67
2023/05/11 01:17:20;;;;;;;13.53;12.23;;;16.50;99.90;;;;;;5077058;28;20442;-68
2023/05/11 01:19:52;;;;;;;13.93;12.50;;;16.50;99.90;;;;;;5077353;28;20452;-68
2023/05/11 01:22:34;;;;;;;15.47;13.17;;;16.40;99.90;;;;;;5077265;28;20496;-68
2023/05/11 01:25:11;;;;;;;16.97;13.37;;;16.40;99.90;;;;;;5077324;28;20533;-68
2023/05/11 01:28:11;;;;;;;14.57;13.13;;;16.40;99.90;;;;;;5076963;28;20883;-66
2023/05/11 01:30:48;;;;;;;14.03;12.20;;;16.40;99.90;;;;;;5072100;28;20454;-67
2023/05/11 01:33:16;;;;;;;14.07;12.30;;;16.40;99.90;;;;;;5076893;28;20438;-68
2023/05/11 01:35:46;;;;;;;13.83;12.43;;;16.30;99.90;;;;;;5077144;28;20454;-68
2023/05/11 01:38:19;;;;;;;13.63;12.13;;;16.30;99.90;;;;;;5076743;28;20496;-67
2023/05/11 01:40:54;;;;;;;13.03;11.40;;;16.30;99.90;;;;;;5076727;28;20446;-68
2023/05/11 01:43:25;;;;;;;16.90;12.60;;;16.30;99.90;;;;;;5076660;28;20858;-68
2023/05/11 01:45:59;;;;;;;15.30;12.63;;;16.20;99.90;;;;;;5077122;28;20434;-68
2023/05/11 01:48:31;;;;;;;14.83;13.33;;;16.20;99.90;;;;;;5076788;28;20476;-68
2023/05/11 01:51:04;;;;;;;15.60;14.00;;;16.10;99.90;;;;;;5076989;28;20499;-67
2023/05/11 01:53:35;;;;;;;14.10;12.80;;;16.10;99.90;;;;;;5076525;28;20450;-68
2023/05/11 01:56:04;;;;;;;14.80;13.20;;;16.10;99.90;;;;;;5076612;28;20442;-68
2023/05/11 01:58:32;;;;;;;14.03;12.70;;;16.10;99.90;;;;;;5076750;28;20588;-68
2023/05/11 02:01:01;;;;;;;15.40;13.80;;;16.00;99.90;;;;;;5076741;28;20850;-68
2023/05/11 02:03:31;;;;;;;15.90;13.90;;;16.00;99.90;;;;;;5076987;28;20454;-68
2023/05/11 02:05:59;;;;;;;14.87;13.47;;;16.00;99.90;;;;;;5076740;28;20455;-68
2023/05/11 02:08:27;;;;;;;15.40;13.70;;;16.00;99.90;;;;;;5076583;28;20833;-68
2023/05/11 02:10:56;;;;;;;14.63;12.93;;;16.00;99.90;;;;;;5076515;28;20561;-68
2023/05/11 02:13:24;;;;;;;14.67;13.17;;;16.00;99.90;;;;;;5076597;28;20461;-67
2023/05/11 02:15:53;;;;;;;15.10;13.27;;;16.00;99.90;;;;;;5076748;28;20465;-68
2023/05/11 02:18:22;;;;;;;13.80;12.40;;;15.90;99.90;;;;;;5076691;28;20800;-68
2023/05/11 02:20:50;;;;;;;14.53;12.97;;;15.90;99.90;;;;;;5076407;28;20801;-68
2023/05/11 02:23:18;;;;;;;14.30;12.73;;;15.90;99.90;;;;;;5076093;28;20814;-67
2023/05/11 02:25:47;;;;;;;14.53;13.13;;;15.90;99.90;;;;;;5076098;28;20994;-68
2023/05/11 02:28:13;;;;;;;14.90;13.30;;;15.80;99.90;;;;;;5076345;28;20454;-68
2023/05/11 02:30:45;;;;;;;18.77;13.90;;;15.80;99.90;;;;;;5075921;28;20500;-67
2023/05/11 02:33:18;;;;;;;15.57;14.00;;;15.80;99.90;;;;;;5075973;28;20438;-68
2023/05/11 02:35:47;;;;;;;15.67;14.07;;;15.80;99.90;;;;;;5076006;28;20444;-68
2023/05/11 02:38:15;;;;;;;14.50;13.03;;;15.70;99.90;;;;;;5075941;28;20478;-68
2023/05/11 02:40:46;;;;;;;14.90;13.13;;;15.70;99.90;;;;;;5075901;28;20435;-67
2023/05/11 02:43:20;;;;;;;19.10;14.20;;;15.70;99.90;;;;;;5075681;28;20439;-68
2023/05/11 02:45:50;;;;;;;18.83;13.23;;;15.60;99.90;;;;;;5075607;28;20446;-68
2023/05/11 02:48:22;;;;;;;16.93;13.63;;;15.60;99.90;;;;;;5075958;28;20465;-67
2023/05/11 02:50:52;;;;;;;14.97;13.40;;;15.60;99.90;;;;;;5075732;28;20508;-68
2023/05/11 02:53:21;;;;;;;14.87;13.30;;;15.50;99.90;;;;;;5076009;28;20490;-68
2023/05/11 02:55:50;;;;;;;14.17;12.67;;;15.50;99.90;;;;;;5075531;28;20454;-68
2023/05/11 02:58:18;;;;;;;16.47;12.83;;;15.40;99.90;;;;;;5075556;28;20458;-68
2023/05/11 03:00:46;;;;;;;13.27;11.90;;;15.40;99.90;;;;;;5075332;28;20550;-68
2023/05/11 03:03:13;;;;;;;13.67;12.27;;;15.40;99.90;;;;;;5075577;28;20454;-68
2023/05/11 03:05:40;;;;;;;14.03;12.10;;;15.30;99.90;;;;;;5075180;28;20461;-68
2023/05/11 03:08:08;;;;;;;13.03;11.80;;;15.30;99.90;;;;;;5075356;28;20933;-68
2023/05/11 03:10:35;;;;;;;13.10;11.83;;;15.30;99.90;;;;;;5075141;28;20478;-68
2023/05/11 03:13:03;;;;;;;12.83;11.13;;;15.30;99.90;;;;;;5075279;28;20986;-68
2023/05/11 03:15:31;;;;;;;12.90;11.60;;;15.30;99.90;;;;;;5075066;28;20465;-68
2023/05/11 03:17:59;;;;;;;11.83;10.73;;;15.30;99.90;;;;;;5075583;28;20454;-68
2023/05/11 03:20:27;;;;;;;14.07;12.07;;;15.30;99.90;;;;;;5074947;28;20450;-67
2023/05/11 03:22:55;;;;;;;12.70;11.40;;;15.20;99.90;;;;;;5074955;28;20464;-68
2023/05/11 03:25:24;;;;;;;12.77;11.43;;;15.20;99.90;;;;;;5074872;28;20490;-68
2023/05/11 03:27:52;;;;;;;16.53;13.40;;;15.20;99.90;;;;;;5075259;28;20552;-68
2023/05/11 03:30:20;;;;;;;11.50;10.47;;;15.20;99.90;;;;;;5074850;28;20528;-68
2023/05/11 03:32:47;;;;;;;11.80;10.70;;;15.10;99.90;;;;;;5075016;28;20934;-68
2023/05/11 03:35:14;;;;;;;12.60;11.30;;;15.10;99.90;;;;;;5075236;28;20459;-68
2023/05/11 03:37:43;;;;;;;11.03;9.77;;;15.10;99.90;;;;;;5074911;28;20971;-68
2023/05/11 03:40:13;;;;;;;10.63;9.73;;;15.10;99.90;;;;;;5074862;28;20492;-69
2023/05/11 03:42:43;;;;;;;10.00;9.10;;;15.10;99.90;;;;;;5075178;28;20800;-68
2023/05/11 03:45:13;;;;;;;11.80;10.60;;;15.10;99.90;;;;;;5075624;28;20462;-69
2023/05/11 03:47:42;;;;;;;10.57;9.67;;;15.10;99.90;;;;;;5075475;28;20870;-68
2023/05/11 03:50:10;;;;;;;11.40;10.40;;;15.10;99.90;;;;;;5074829;28;20500;-68
2023/05/11 03:52:38;;;;;;;10.00;9.03;;;15.00;99.90;;;;;;5075057;28;20464;-69
2023/05/11 03:55:06;;;;;;;11.27;9.53;;;15.00;99.90;;;;;;5074885;28;20458;-68
2023/05/11 03:57:33;;;;;;;10.20;9.30;;;15.00;99.90;;;;;;5073736;28;20453;-68
2023/05/11 04:00:01;;;;;;;9.93;9.03;;;15.00;99.90;;;;;;5074736;28;20454;-68
2023/05/11 04:02:28;;;;;;;11.33;10.27;;;15.00;99.90;;;;;;5074833;28;20496;-68
2023/05/11 04:04:55;;;;;;;9.67;8.77;;;15.00;99.90;;;;;;5074626;28;20465;-67
2023/05/11 04:07:21;;;;;;;13.03;9.40;;;15.00;99.90;;;;;;5074336;28;20458;-68
2023/05/11 04:09:48;;;;;;;9.67;8.87;;;15.00;99.90;;;;;;5074428;28;20478;-68
2023/05/11 04:12:15;;;;;;;9.80;8.90;;;15.00;99.90;;;;;;5074598;28;20464;-67
2023/05/11 04:14:42;;;;;;;10.67;9.20;;;15.00;99.90;;;;;;5074801;28;20784;-67
2023/05/11 04:17:10;;;;;;;9.67;8.77;;;15.00;99.90;;;;;;5074595;28;20465;-67
2023/05/11 04:19:37;;;;;;;10.30;9.30;;;15.10;99.90;;;;;;5074190;28;20462;-68
2023/05/11 04:22:04;;;;;;;9.50;8.70;;;15.10;99.90;;;;;;5074537;28;20545;-68
2023/05/11 04:24:31;;;;;;;9.50;8.60;;;15.10;99.90;;;;;;5074015;28;20454;-68
2023/05/11 04:26:57;;;;;;;8.93;8.20;;;15.10;99.90;;;;;;5074063;28;20459;-68
2023/05/11 04:29:25;;;;;;;9.40;8.43;;;15.10;99.90;;;;;;5073972;28;21076;-68
2023/05/11 04:31:52;;;;;;;9.30;8.50;;;15.10;99.90;;;;;;5074117;28;20454;-68
2023/05/11 04:34:20;;;;;;;9.77;8.77;;;15.10;99.90;;;;;;5074138;28;20462;-68
2023/05/11 04:36:48;;;;;;;8.40;7.60;;;15.10;99.90;;;;;;5074428;28;20454;-68
2023/05/11 04:39:15;;;;;;;9.50;8.60;;;15.10;99.90;;;;;;5073869;28;20894;-68
2023/05/11 04:41:42;;;;;;;10.03;8.97;;;15.10;99.90;;;;;;5073923;28;20519;-68
2023/05/11 04:44:09;;;;;;;8.20;7.40;;;15.10;99.90;;;;;;5074299;28;20624;-69
2023/05/11 04:46:37;;;;;;;8.90;8.13;;;15.10;99.90;;;;;;5074337;28;20454;-68
2023/05/11 04:49:04;;;;;;;8.53;7.73;;;15.20;99.90;;;;;;5074319;28;20486;-69
2023/05/11 04:51:32;;;;;;;8.50;7.70;;;15.20;99.90;;;;;;5074295;28;20482;-68
2023/05/11 04:53:59;;;;;;;8.87;8.07;;;15.20;99.90;;;;;;5074203;28;20453;-68
2023/05/11 04:56:26;;;;;;;8.43;7.47;;;15.20;99.90;;;;;;5074305;28;20454;-67
2023/05/11 04:58:53;;;;;;;8.50;7.80;;;15.10;99.90;;;;;;5073987;28;20454;-68
2023/05/11 05:01:19;;;;;;;10.20;9.10;;;15.10;99.90;;;;;;5073815;28;20461;-68
2023/05/11 05:03:49;;;;;;;10.73;9.73;;;15.20;99.90;;;;;;5074014;28;20450;-67
2023/05/11 05:06:16;;;;;;;8.23;7.53;;;15.30;99.90;;;;;;5074014;28;20519;-68
2023/05/11 05:08:44;;;;;;;9.23;8.20;;;15.30;99.90;;;;;;5074600;28;20453;-68
2023/05/11 05:11:11;;;;;;;8.70;7.90;;;15.30;99.90;;;;;;5077391;28;20657;-68
2023/05/11 05:13:38;;;;;;;8.37;7.67;;;15.20;99.90;;;;;;5077687;28;20453;-68
2023/05/11 05:16:05;;;;;;;8.30;7.60;;;15.10;99.90;;;;;;5077385;28;20464;-68
2023/05/11 05:18:32;;;;;;;8.30;7.57;;;15.10;99.90;;;;;;5077704;28;20821;-68
2023/05/11 05:20:59;;;;;;;7.87;7.07;;;15.20;99.90;;;;;;5077168;28;20461;-67
2023/05/11 05:23:25;;;;;;;7.33;6.73;;;15.20;99.90;;;;;;5077349;28;20462;-69
2023/05/11 05:25:54;;;;;;;8.27;7.47;;;15.30;99.90;;;;;;5077216;28;20454;-69
2023/05/11 05:28:21;;;;;;;9.63;7.30;;;15.30;99.90;;;;;;5077348;28;20480;-68
2023/05/11 05:30:47;;;;;;;7.73;6.93;;;15.40;99.90;;;;;;5076982;28;20509;-69
2023/05/11 05:33:14;;;;;;;7.80;7.10;;;15.40;99.90;;;;;;5077030;28;20536;-68
2023/05/11 05:35:42;;;;;;;7.90;7.30;;;15.30;99.90;;;;;;5076983;28;20935;-68
2023/05/11 05:38:09;;;;;;;21.63;19.47;;;15.40;99.90;;;;;;5077480;28;20482;-68
2023/05/11 05:40:38;;;;;;;11.10;10.10;;;15.50;99.90;;;;;;5076837;28;20508;-68
2023/05/11 05:43:06;;;;;;;7.87;7.17;;;15.50;99.90;;;;;;5076986;28;20458;-67
2023/05/11 05:45:33;;;;;;;8.80;7.90;;;15.70;99.90;;;;;;5077165;28;20565;-68
2023/05/11 05:48:00;;;;;;;8.63;7.90;;;15.70;99.90;;;;;;5077467;28;20462;-68
2023/05/11 05:50:27;;;;;;;11.60;10.43;;;15.70;99.90;;;;;;5076795;28;20490;-68
2023/05/11 05:52:54;;;;;;;25.07;20.27;;;15.70;99.90;;;;;;5077249;28;20561;-68
2023/05/11 05:55:21;;;;;;;8.90;7.90;;;15.80;99.90;;;;;;5076843;28;20469;-67
2023/05/11 05:57:48;;;;;;;9.83;8.90;;;15.90;99.90;;;;;;5076806;28;20741;-68
2023/05/11 06:00:17;;;;;;;11.57;9.97;;;15.90;99.90;;;;;;5076555;28;20486;-67
2023/05/11 06:02:44;;;;;;;9.63;8.63;;;16.00;99.90;;;;;;5076700;28;20923;-68
2023/05/11 06:05:10;;;;;;;8.80;8.00;;;16.10;99.90;;;;;;5076787;28;20454;-68
2023/05/11 06:07:37;;;;;;;7.47;6.77;;;16.10;99.90;;;;;;5076509;28;20455;-69
2023/05/11 06:10:05;;;;;;;9.77;8.87;;;16.20;99.90;;;;;;5076746;28;20870;-69
2023/05/11 06:12:32;;;;;;;9.03;6.63;;;16.10;99.90;;;;;;5076405;28;20504;-69
2023/05/11 06:14:59;;;;;;;7.17;6.53;;;16.20;99.90;;;;;;5076566;28;20545;-68
2023/05/11 06:17:27;;;;;;;7.40;6.70;;;16.20;99.90;;;;;;5076197;28;20522;-68
2023/05/11 06:19:54;;;;;;;8.33;7.50;;;16.20;99.90;;;;;;5075728;28;20450;-68
2023/05/11 06:22:21;;;;;;;7.80;7.10;;;16.20;99.90;;;;;;5075471;28;20545;-68
2023/05/11 06:24:48;;;;;;;7.87;5.70;;;16.20;99.90;;;;;;5076442;28;20464;-68
2023/05/11 06:27:14;;;;;;;6.97;6.30;;;16.20;99.90;;;;;;5076353;28;20450;-68
2023/05/11 06:29:42;;;;;;;6.37;5.87;;;16.30;99.90;;;;;;5076237;28;20902;-69
2023/05/11 06:32:09;;;;;;;6.17;5.53;;;16.20;99.90;;;;;;5076074;28;20509;-69
2023/05/11 06:34:38;;;;;;;7.53;5.70;;;16.30;99.90;;;;;;5075996;28;20473;-68
2023/05/11 06:37:05;;;;;;;6.83;5.67;;;16.40;99.90;;;;;;5076073;28;20462;-68
2023/05/11 06:39:34;;;;;;;7.47;5.93;;;16.40;99.90;;;;;;5075721;28;20900;-68
2023/05/11 06:42:01;;;;;;;8.67;5.60;;;16.50;99.90;;;;;;5075993;28;20637;-68
2023/05/11 06:44:28;;;;;;;5.33;4.77;;;16.60;99.90;;;;;;5075687;28;20462;-68
2023/05/11 06:46:55;;;;;;;8.30;5.57;;;16.70;99.90;;;;;;5075954;28;20455;-68
2023/05/11 06:49:22;;;;;;;8.50;6.00;;;16.80;99.90;;;;;;5076183;28;20782;-68
2023/05/11 06:51:50;;;;;;;5.80;5.20;;;16.90;99.90;;;;;;5074949;28;20489;-68
2023/05/11 06:54:17;;;;;;;6.03;5.43;;;16.90;99.90;;;;;;5075966;28;20453;-68
2023/05/11 06:56:44;;;;;;;6.00;4.93;;;16.90;99.90;;;;;;5075534;28;20454;-68
2023/05/11 06:59:11;;;;;;;5.20;4.80;;;16.90;99.90;;;;;;5074902;28;20454;-67
2023/05/11 07:01:38;;;;;;;4.87;4.47;;;17.00;99.90;;;;;;5074920;28;20450;-67
2023/05/11 07:04:05;;;;;;;8.57;5.07;;;17.10;99.90;;;;;;5075109;28;20515;-67
2023/05/11 07:06:32;;;;;;;5.27;4.77;;;17.20;99.90;;;;;;5075267;28;20462;-67
2023/05/11 07:09:02;;;;;;;6.33;5.73;;;17.20;99.90;;;;;;5075261;28;20455;-67
2023/05/11 07:11:30;;;;;;;6.63;4.90;;;17.20;99.90;;;;;;5074685;28;20493;-67
2023/05/11 07:13:56;;;;;;;5.27;4.87;;;17.30;99.90;;;;;;5075191;28;20482;-67
2023/05/11 07:16:23;;;;;;;6.23;4.73;;;17.30;99.90;;;;;;5074924;28;20455;-67
2023/05/11 07:18:50;;;;;;;5.13;4.63;;;17.30;99.90;;;;;;5074599;28;20454;-67
2023/05/11 07:21:17;;;;;;;8.30;4.67;;;17.40;99.90;;;;;;5074823;28;20450;-67
2023/05/11 07:23:44;;;;;;;4.80;4.30;;;17.50;99.90;;;;;;5075014;28;20519;-67
2023/05/11 07:26:12;;;;;;;8.10;5.00;;;17.50;99.90;;;;;;5074873;28;20458;-68
2023/05/11 07:28:40;;;;;;;5.00;4.60;;;17.70;99.90;;;;;;5074518;28;20458;-67
2023/05/11 07:31:06;;;;;;;5.30;4.37;;;17.70;99.90;;;;;;5074636;28;20489;-68
2023/05/11 07:33:34;;;;;;;4.40;4.03;;;17.70;99.90;;;;;;5074532;28;20458;-68
2023/05/11 07:36:01;;;;;;;4.30;3.90;;;17.80;99.90;;;;;;5074978;28;20458;-67
2023/05/11 07:38:28;;;;;;;8.13;4.10;;;17.90;99.90;;;;;;5074449;28;20510;-67
2023/05/11 07:40:55;;;;;;;5.90;4.17;;;18.00;99.90;;;;;;5075198;28;20449;-68
2023/05/11 07:43:23;;;;;;;4.70;4.20;;;18.10;99.90;;;;;;5074598;28;20465;-67
2023/05/11 07:45:49;;;;;;;3.80;3.30;;;18.20;99.90;;;;;;5074338;28;20468;-67
2023/05/11 07:48:16;;;;;;;3.57;3.27;;;18.30;99.90;;;;;;5074159;28;20563;-68
2023/05/11 07:50:44;;;;;;;5.20;4.27;;;18.40;99.90;;;;;;5074271;28;20482;-68
2023/05/11 07:53:10;;;;;;;5.97;4.40;;;18.50;99.90;;;;;;5074497;28;20454;-67
2023/05/11 07:55:37;;;;;;;6.10;4.00;;;18.50;99.90;;;;;;5074514;28;20454;-67
2023/05/11 07:58:04;;;;;;;5.30;4.07;;;18.60;99.90;;;;;;5074344;28;20462;-67
2023/05/11 08:00:33;;;;;;;4.00;3.70;;;18.70;99.90;;;;;;5074725;28;20465;-68
2023/05/11 08:03:00;;;;;;;4.97;3.43;;;18.90;99.90;;;;;;5074508;28;20903;-68
2023/05/11 08:05:28;;;;;;;3.50;3.20;;;19.00;99.90;;;;;;5074799;28;20458;-68
2023/05/11 08:07:55;;;;;;;3.93;3.60;;;19.20;99.90;;;;;;5074366;28;20458;-68
2023/05/11 08:10:21;;;;;;;4.00;3.17;;;19.30;99.90;;;;;;5073916;28;20933;-68
2023/05/11 08:12:48;;;;;;;5.93;3.63;;;19.40;99.90;;;;;;5074490;28;20450;-68
2023/05/11 08:15:15;;;;;;;3.80;3.40;;;19.40;99.90;;;;;;5074310;28;20454;-67
2023/05/11 08:17:44;;;;;;;4.03;3.40;;;19.50;99.90;;;;;;5074325;28;20916;-68
2023/05/11 08:20:12;;;;;;;6.20;3.90;;;19.50;99.90;;;;;;5074697;28;20461;-68
2023/05/11 08:22:39;;;;;;;5.43;3.30;;;19.50;99.90;;;;;;5074811;28;20482;-68
2023/05/11 08:25:07;;;;;;;3.50;3.20;;;19.40;99.90;;;;;;5074735;28;20453;-68
2023/05/11 08:27:34;;;;;;;5.63;3.23;;;19.50;99.90;;;;;;5074676;28;20468;-68
2023/05/11 08:30:01;;;;;;;3.30;3.00;;;19.50;99.90;;;;;;5075124;28;20497;-68
2023/05/11 08:32:28;;;;;;;3.40;3.10;;;19.60;99.90;;;;;;5074043;28;20482;-67
2023/05/11 08:34:56;;;;;;;3.50;3.20;;;19.60;99.90;;;;;;5074624;28;20460;-68
2023/05/11 08:37:23;;;;;;;5.33;3.40;;;19.70;99.90;;;;;;5074468;28;20464;-67
2023/05/11 08:39:50;;;;;;;3.40;3.10;;;19.80;99.90;;;;;;5073953;28;20493;-68
2023/05/11 08:42:18;;;;;;;4.30;3.67;;;19.90;99.90;;;;;;5073844;28;20783;-68
2023/05/11 08:44:47;;;;;;;7.20;3.80;;;20.00;99.90;;;;;;5076611;28;20454;-68
2023/05/11 08:47:14;;;;;;;4.87;3.27;;;20.10;99.90;;;;;;5077678;28;20557;-68
2023/05/11 08:49:41;;;;;;;3.60;3.13;;;20.10;99.90;;;;;;5078231;28;20746;-68
2023/05/11 08:52:11;;;;;;;5.57;3.03;;;20.20;99.90;;;;;;5077500;28;20481;-68
2023/05/11 08:54:38;;;;;;;9.20;3.20;;;20.30;99.90;;;;;;5077668;28;20548;-68
2023/05/11 08:57:06;;;;;;;6.70;3.33;;;20.40;99.90;;;;;;5078060;28;20458;-67
2023/05/11 08:59:33;;;;;;;3.93;3.27;;;20.40;99.90;;;;;;5077998;28;20462;-68
2023/05/11 09:02:01;;;;;;;3.30;3.00;;;20.40;99.90;;;;;;5077731;28;20450;-67
2023/05/11 09:04:28;;;;;;;3.73;3.40;;;20.50;99.90;;;;;;5077688;28;20494;-68
2023/05/11 09:06:56;;;;;;;3.17;2.90;;;20.50;99.90;;;;;;5077295;28;20454;-68
2023/05/11 09:09:24;;;;;;;7.40;3.30;;;20.60;99.90;;;;;;5077942;28;20454;-67
2023/05/11 09:11:54;;;;;;;4.17;3.13;;;20.70;99.90;;;;;;5077707;28;20801;-67
2023/05/11 09:14:20;;;;;;;5.07;3.30;;;20.80;99.90;;;;;;5077236;28;20923;-68
2023/05/11 09:16:47;;;;;;;2.83;2.63;;;20.90;99.40;;;;;;5077703;28;20778;-68
2023/05/11 09:19:15;;;;;;;4.23;2.73;;;21.10;98.40;;;;;;5077234;28;20556;-68
2023/05/11 09:21:42;;;;;;;5.10;2.50;;;21.10;97.40;;;;;;5077955;28;20469;-67
2023/05/11 09:24:12;;;;;;;5.70;3.27;;;21.20;96.40;;;;;;5077340;28;20552;-69
2023/05/11 09:26:40;;;;;;;3.30;2.70;;;21.30;93.90;;;;;;5076969;28;20464;-68
2023/05/11 09:29:07;;;;;;;4.50;2.60;;;21.40;93.30;;;;;;5077196;28;20454;-68
2023/05/11 09:31:39;;;;;;;5.10;2.30;;;21.50;91.70;;;;;;5077274;28;20812;-68
2023/05/11 09:34:17;;;;;;;3.57;3.27;;;21.50;90.10;;;;;;5076762;28;20496;-67
2023/05/11 09:36:45;;;;;;;8.97;3.07;;;21.50;88.40;;;;;;5077403;28;20464;-68
2023/05/11 09:39:13;;;;;;;3.53;2.40;;;21.60;88.20;;;;;;5076672;28;20482;-67
2023/05/11 09:41:41;;;;;;;3.70;2.67;;;21.70;89.10;;;;;;5076835;28;20549;-68
2023/05/11 09:44:10;;;;;;;2.83;2.50;;;21.80;86.60;;;;;;5077059;28;20545;-68
2023/05/11 09:46:38;;;;;;;3.13;2.47;;;21.80;81.30;;;;;;5076823;28;20458;-68
2023/05/11 09:49:05;;;;;;;2.80;2.50;;;21.90;81.80;;;;;;5076062;28;20465;-68
2023/05/11 09:51:33;;;;;;;2.20;2.00;;;22.00;80.60;;;;;;5076682;28;20482;-68
2023/05/11 09:54:01;;;;;;;2.93;2.70;;;22.10;79.30;;;;;;5076898;28;20540;-69
2023/05/11 09:56:47;;;;;;;3.83;3.03;;;22.10;77.20;;;;;;5075118;28;20465;-68
2023/05/11 09:59:16;;;;;;;2.70;2.50;;;22.10;78.20;;;;;;5076502;28;20525;-68
2023/05/11 10:01:43;;;;;;;4.37;2.97;;;22.10;78.70;;;;;;5076212;28;20553;-68
2023/05/11 10:04:10;;;;;;;5.30;2.83;;;22.20;76.00;;;;;;5076574;28;20477;-69
2023/05/11 10:06:44;;;;;;;5.20;2.50;;;22.20;74.00;;;;;;5076873;28;20489;-69
2023/05/11 10:09:12;;;;;;;4.60;2.37;;;22.30;69.30;;;;;;5076422;28;20469;-69
2023/05/11 10:11:42;;;;;;;2.70;2.50;;;22.40;66.10;;;;;;5076026;28;20493;-68
2023/05/11 10:14:11;;;;;;;3.53;2.63;;;22.40;65.40;;;;;;5075715;28;20454;-68
2023/05/11 10:16:39;;;;;;;4.47;2.53;;;22.50;64.30;;;;;;5075470;28;20462;-69
2023/05/11 10:19:06;;;;;;;2.50;2.30;;;22.50;62.00;;;;;;5075831;28;20549;-68
2023/05/11 10:21:34;;;;;;;6.53;2.80;;;22.60;60.60;;;;;;5075821;28;20481;-69
2023/05/11 10:24:02;;;;;;;3.70;3.37;;;22.60;62.00;;;;;;5075693;28;20835;-68
2023/05/11 10:26:30;;;;;;;2.70;2.50;;;22.70;63.90;;;;;;5075972;28;20743;-68
2023/05/11 10:28:58;;;;;;;4.00;2.50;;;22.80;59.90;;;;;;5075926;28;20541;-69
2023/05/11 10:31:27;;;;;;;3.10;2.53;;;22.80;58.80;;;;;;5075834;28;20801;-69
2023/05/11 10:33:56;;;;;;;5.73;2.70;;;22.80;57.70;;;;;;5075467;28;20462;-68
2023/05/11 10:36:30;;;;;;;5.10;3.13;;;22.90;57.70;;;;;;5075549;28;20477;-68
2023/05/11 10:38:56;;;;;;;6.70;2.73;;;22.80;57.50;;;;;;5075334;28;20784;-68
2023/05/11 10:41:41;;;;;;;6.40;2.70;;;22.80;58.70;;;;;;5075073;28;20545;-69
2023/05/11 10:44:45;;;;;;;4.70;2.67;;;22.90;57.40;;;;;;5075473;28;20442;-69
2023/05/11 10:47:32;;;;;;;2.67;2.47;;;23.00;57.20;;;;;;5075425;28;20446;-69
2023/05/11 10:50:20;;;;;;;2.80;2.37;;;23.20;57.60;;;;;;5075656;28;20844;-68
2023/05/11 10:53:05;;;;;;;3.07;2.60;;;23.30;56.30;;;;;;5075011;28;20551;-68
2023/05/11 10:55:45;;;;;;;4.17;2.90;;;23.30;55.20;;;;;;5075041;28;20927;-68
2023/05/11 10:58:16;;;;;;;3.93;2.50;;;23.30;55.30;;;;;;5075313;28;20465;-68
2023/05/11 11:01:19;;;;;;;4.47;2.10;;;23.50;56.20;;;;;;5075534;28;20872;-68
2023/05/11 11:03:58;;;;;;;6.20;2.00;;;23.80;56.50;;;;;;5064929;28;20489;-68
2023/05/11 11:06:28;;;;;;;5.17;2.63;;;24.00;53.00;;;;;;5074416;28;20454;-68
2023/05/11 11:08:56;;;;;;;2.90;1.97;;;24.00;52.30;;;;;;5075016;28;20557;-68
2023/05/11 11:11:35;;;;;;;2.83;2.33;;;24.20;51.40;;;;;;5075126;28;20477;-67
2023/05/11 11:14:04;;;;;;;3.83;2.70;;;24.30;51.60;;;;;;5074749;28;20442;-68
2023/05/11 11:16:32;;;;;;;4.63;3.00;;;24.30;48.90;;;;;;5075079;28;20798;-67
2023/05/11 11:19:39;;;;;;;5.43;2.50;;;24.30;49.00;;;;;;5074879;28;20796;-67
2023/05/11 11:22:26;;;;;;;7.53;2.53;;;24.20;48.40;;;;;;5066367;28;20457;-68
2023/05/11 11:24:53;;;;;;;3.00;2.50;;;24.40;49.00;;;;;;5074473;28;20927;-68
2023/05/11 11:27:58;;;;;;;2.40;2.20;;;24.70;47.70;;;;;;5074513;28;20450;-68
2023/05/11 11:30:27;;;;;;;3.00;2.47;;;24.90;47.40;;;;;;5074817;28;20478;-68
2023/05/11 11:32:56;;;;;;;2.73;2.53;;;24.80;47.40;;;;;;5074689;28;20580;-68
2023/05/11 11:35:44;;;;;;;3.53;2.67;;;24.70;45.60;;;;;;5074690;28;20451;-68
2023/05/11 11:38:13;;;;;;;3.43;2.30;;;24.70;46.00;;;;;;5074350;28;20508;-68
2023/05/11 11:40:41;;;;;;;2.43;2.23;;;24.70;45.10;;;;;;5074461;28;20442;-68
2023/05/11 11:43:13;;;;;;;2.97;2.20;;;24.80;45.50;;;;;;5074945;28;20739;-68
2023/05/11 11:45:51;;;;;;;2.20;2.00;;;24.70;44.90;;;;;;5074629;28;20827;-68
2023/05/11 11:48:21;;;;;;;2.67;2.47;;;24.70;46.00;;;;;;5074681;28;20454;-67
2023/05/11 11:51:00;;;;;;;3.67;3.23;;;24.70;47.00;;;;;;5074718;28;20548;-68
2023/05/11 11:54:03;;;;;;;3.00;2.60;;;24.60;47.40;;;;;;5074410;28;20839;-68
2023/05/11 11:56:43;;;;;;;6.40;3.10;;;24.50;48.20;;;;;;5074412;28;20457;-67
2023/05/11 11:59:18;;;;;;;2.83;2.20;;;24.40;47.60;;;;;;5074308;28;20454;-67
2023/05/11 12:01:45;;;;;;;7.43;2.60;;;24.30;48.40;;;;;;5074406;28;20548;-67
2023/05/11 12:04:40;;;;;;;3.03;2.30;;;24.20;47.90;;;;;;5074092;28;20931;-67
2023/05/11 12:07:10;;;;;;;3.23;2.27;;;24.10;47.50;;;;;;5074178;28;20442;-68
2023/05/11 12:09:38;;;;;;;4.77;2.90;;;23.90;47.40;;;;;;5074356;28;20465;-67
2023/05/11 12:12:07;;;;;;;2.47;2.27;;;23.80;47.50;;;;;;5073963;28;20474;-67
2023/05/11 12:14:36;;;;;;;2.20;2.00;;;23.80;45.70;;;;;;5074083;28;20481;-68
2023/05/11 12:17:07;;;;;;;4.20;2.40;;;23.80;45.50;;;;;;5074515;28;20465;-66
2023/05/11 12:19:34;;;;;;;3.73;2.20;;;23.70;45.70;;;;;;5073447;28;20884;-68
2023/05/11 12:22:01;;;;;;;3.20;2.23;;;23.80;45.90;;;;;;5074494;28;20504;-67
2023/05/11 12:24:28;;;;;;;2.03;1.87;;;23.80;44.80;;;;;;5073838;28;20493;-67
2023/05/11 12:26:58;;;;;;;2.10;1.90;;;23.90;44.60;;;;;;5073918;28;20982;-68
2023/05/11 12:29:25;;;;;;;3.07;2.77;;;24.00;44.00;;;;;;5074226;28;20458;-68
2023/05/11 12:31:54;;;;;;;2.50;2.30;;;24.20;42.20;;;;;;5074237;28;20486;-68
2023/05/11 12:34:22;;;;;;;2.80;2.10;;;24.40;40.50;;;;;;5074334;28;20522;-67
2023/05/11 12:36:52;;;;;;;4.37;2.40;;;24.50;39.50;;;;;;5073656;28;20462;-67
2023/05/11 12:39:19;;;;;;;2.67;1.90;;;24.70;40.60;;;;;;5073879;28;20816;-68
2023/05/11 12:41:48;;;;;;;2.50;2.30;;;24.90;39.40;;;;;;5074236;28;20458;-68
2023/05/11 12:44:16;;;;;;;2.93;2.00;;;24.80;39.30;;;;;;5074013;28;20450;-68
2023/05/11 12:46:44;;;;;;;4.30;2.07;;;24.70;39.40;;;;;;5073736;28;20454;-68
2023/05/11 12:49:15;;;;;;;2.60;2.40;;;24.70;39.50;;;;;;5074008;28;20461;-68
2023/05/11 12:51:44;;;;;;;3.27;2.97;;;24.80;40.50;;;;;;5073803;28;20850;-67